sensor_id;sensor_type;location;lat;lon;timestamp;pressure;altitude;pressure_sealevel;temperature;humidity
43298;BME280;28892;55.640;37.532;2023-03-26T00:01:57;97376.91;;;9.33;71.52
43298;BME280;28892;55.640;37.532;2023-03-26T00:04:23;97385.63;;;9.34;71.35
43298;BME280;28892;55.640;37.532;2023-03-26T00:06:50;97382.28;;;9.20;71.47
43298;BME280;28892;55.640;37.532;2023-03-26T00:09:17;97379.72;;;9.13;71.69
43298;BME280;28892;55.640;37.532;2023-03-26T00:11:43;97383.97;;;9.14;72.12
43298;BME280;28892;55.640;37.532;2023-03-26T00:14:11;97382.59;;;9.12;71.91
43298;BME280;28892;55.640;37.532;2023-03-26T00:16:39;97380.19;;;8.85;72.24
43298;BME280;28892;55.640;37.532;2023-03-26T00:19:09;97386.47;;;8.58;73.26
43298;BME280;28892;55.640;37.532;2023-03-26T00:21:35;97387.84;;;8.68;73.76
43298;BME280;28892;55.640;37.532;2023-03-26T00:24:07;97393.94;;;8.68;73.95
43298;BME280;28892;55.640;37.532;2023-03-26T00:26:35;97390.34;;;8.56;73.36
43298;BME280;28892;55.640;37.532;2023-03-26T00:29:03;97394.03;;;8.48;73.61
43298;BME280;28892;55.640;37.532;2023-03-26T00:31:30;97386.81;;;8.30;74.38
43298;BME280;28892;55.640;37.532;2023-03-26T00:33:59;97391.41;;;8.09;74.61
43298;BME280;28892;55.640;37.532;2023-03-26T00:36:47;97392.19;;;8.16;75.54
43298;BME280;28892;55.640;37.532;2023-03-26T00:39:27;97381.88;;;8.08;75.30
43298;BME280;28892;55.640;37.532;2023-03-26T00:41:54;97379.41;;;8.13;75.29
43298;BME280;28892;55.640;37.532;2023-03-26T00:44:20;97371.81;;;8.30;74.93
43298;BME280;28892;55.640;37.532;2023-03-26T00:46:47;97360.50;;;8.48;73.64
43298;BME280;28892;55.640;37.532;2023-03-26T00:49:13;97362.75;;;8.51;74.07
43298;BME280;28892;55.640;37.532;2023-03-26T00:51:40;97370.47;;;8.53;73.88
43298;BME280;28892;55.640;37.532;2023-03-26T00:54:06;97358.38;;;8.64;74.29
43298;BME280;28892;55.640;37.532;2023-03-26T00:56:33;97354.50;;;8.66;73.62
43298;BME280;28892;55.640;37.532;2023-03-26T00:58:59;97352.78;;;8.79;72.68
43298;BME280;28892;55.640;37.532;2023-03-26T01:01:26;97348.31;;;8.79;72.61
43298;BME280;28892;55.640;37.532;2023-03-26T01:03:54;97347.03;;;8.82;72.44
43298;BME280;28892;55.640;37.532;2023-03-26T01:06:28;97352.50;;;8.87;72.82
43298;BME280;28892;55.640;37.532;2023-03-26T01:09:03;97350.88;;;8.86;72.75
43298;BME280;28892;55.640;37.532;2023-03-26T01:11:33;97345.09;;;8.96;72.14
43298;BME280;28892;55.640;37.532;2023-03-26T01:14:04;97352.22;;;8.96;72.39
43298;BME280;28892;55.640;37.532;2023-03-26T01:16:44;97348.56;;;8.97;72.04
43298;BME280;28892;55.640;37.532;2023-03-26T01:20:01;97358.56;;;8.69;72.65
43298;BME280;28892;55.640;37.532;2023-03-26T01:22:03;97362.22;;;8.36;73.49
43298;BME280;28892;55.640;37.532;2023-03-26T01:24:30;97356.78;;;8.24;74.09
43298;BME280;28892;55.640;37.532;2023-03-26T01:27:07;97353.66;;;8.34;74.64
43298;BME280;28892;55.640;37.532;2023-03-26T01:29:49;97355.69;;;8.38;74.44
43298;BME280;28892;55.640;37.532;2023-03-26T01:39:19;97344.03;;;8.78;73.68
43298;BME280;28892;55.640;37.532;2023-03-26T01:46:36;97340.56;;;8.52;72.61
43298;BME280;28892;55.640;37.532;2023-03-26T01:49:03;97338.84;;;8.33;73.21
43298;BME280;28892;55.640;37.532;2023-03-26T01:51:32;97330.72;;;8.34;73.66
43298;BME280;28892;55.640;37.532;2023-03-26T01:54:01;97323.91;;;8.45;73.60
43298;BME280;28892;55.640;37.532;2023-03-26T01:59:52;97332.72;;;8.71;72.83
43298;BME280;28892;55.640;37.532;2023-03-26T02:05:33;97317.81;;;8.77;72.15
43298;BME280;28892;55.640;37.532;2023-03-26T02:08:19;97316.50;;;8.86;71.97
43298;BME280;28892;55.640;37.532;2023-03-26T02:10:54;97309.88;;;8.77;71.59
43298;BME280;28892;55.640;37.532;2023-03-26T02:13:22;97305.38;;;8.77;71.12
43298;BME280;28892;55.640;37.532;2023-03-26T02:15:59;97307.75;;;8.86;71.24
43298;BME280;28892;55.640;37.532;2023-03-26T02:18:27;97300.41;;;8.69;70.81
43298;BME280;28892;55.640;37.532;2023-03-26T02:21:10;97299.75;;;8.74;70.79
43298;BME280;28892;55.640;37.532;2023-03-26T02:23:41;97302.88;;;8.64;71.00
43298;BME280;28892;55.640;37.532;2023-03-26T02:26:12;97310.41;;;8.60;70.99
43298;BME280;28892;55.640;37.532;2023-03-26T02:28:51;97308.06;;;8.52;71.14
43298;BME280;28892;55.640;37.532;2023-03-26T02:31:17;97302.56;;;8.47;71.58
43298;BME280;28892;55.640;37.532;2023-03-26T02:33:44;97310.94;;;8.44;72.20
43298;BME280;28892;55.640;37.532;2023-03-26T02:36:13;97303.47;;;8.41;72.16
43298;BME280;28892;55.640;37.532;2023-03-26T02:38:41;97302.78;;;8.45;72.66
43298;BME280;28892;55.640;37.532;2023-03-26T02:41:07;97296.91;;;8.43;72.33
43298;BME280;28892;55.640;37.532;2023-03-26T02:43:49;97307.06;;;8.72;71.51
43298;BME280;28892;55.640;37.532;2023-03-26T02:46:18;97298.72;;;8.75;71.71
43298;BME280;28892;55.640;37.532;2023-03-26T02:49:01;97307.19;;;8.84;71.27
43298;BME280;28892;55.640;37.532;2023-03-26T02:51:27;97290.16;;;8.79;70.95
43298;BME280;28892;55.640;37.532;2023-03-26T02:54:08;97298.50;;;8.76;71.03
43298;BME280;28892;55.640;37.532;2023-03-26T02:56:57;97303.78;;;8.76;71.24
43298;BME280;28892;55.640;37.532;2023-03-26T02:59:35;97299.13;;;8.72;71.59
43298;BME280;28892;55.640;37.532;2023-03-26T03:02:40;97292.56;;;8.81;70.93
43298;BME280;28892;55.640;37.532;2023-03-26T03:05:26;97287.19;;;8.88;70.69
43298;BME280;28892;55.640;37.532;2023-03-26T03:08:12;97285.00;;;8.85;70.82
43298;BME280;28892;55.640;37.532;2023-03-26T03:11:01;97282.88;;;8.93;71.24
43298;BME280;28892;55.640;37.532;2023-03-26T03:13:45;97285.28;;;8.76;71.28
43298;BME280;28892;55.640;37.532;2023-03-26T03:16:16;97287.78;;;8.71;71.33
43298;BME280;28892;55.640;37.532;2023-03-26T03:18:44;97278.81;;;8.72;71.38
43298;BME280;28892;55.640;37.532;2023-03-26T03:21:12;97288.22;;;8.68;72.15
43298;BME280;28892;55.640;37.532;2023-03-26T03:23:37;97288.81;;;8.70;71.92
43298;BME280;28892;55.640;37.532;2023-03-26T03:26:15;97280.16;;;8.82;71.91
43298;BME280;28892;55.640;37.532;2023-03-26T03:28:48;97275.16;;;8.73;71.73
43298;BME280;28892;55.640;37.532;2023-03-26T03:31:15;97274.34;;;8.73;71.92
43298;BME280;28892;55.640;37.532;2023-03-26T03:33:42;97273.25;;;8.80;71.44
43298;BME280;28892;55.640;37.532;2023-03-26T03:36:10;97267.53;;;8.84;71.34
43298;BME280;28892;55.640;37.532;2023-03-26T03:38:39;97257.78;;;8.84;71.59
43298;BME280;28892;55.640;37.532;2023-03-26T03:41:06;97257.78;;;8.84;71.75
43298;BME280;28892;55.640;37.532;2023-03-26T03:43:35;97254.75;;;8.80;71.35
43298;BME280;28892;55.640;37.532;2023-03-26T03:46:08;97247.63;;;9.18;70.84
43298;BME280;28892;55.640;37.532;2023-03-26T03:48:42;97240.22;;;8.90;71.11
43298;BME280;28892;55.640;37.532;2023-03-26T03:51:16;97247.91;;;8.91;70.94
43298;BME280;28892;55.640;37.532;2023-03-26T03:54:05;97249.66;;;8.79;71.30
43298;BME280;28892;55.640;37.532;2023-03-26T03:56:55;97251.44;;;8.85;71.23
43298;BME280;28892;55.640;37.532;2023-03-26T03:59:49;97246.94;;;8.86;71.10
43298;BME280;28892;55.640;37.532;2023-03-26T04:02:16;97243.16;;;8.82;71.77
43298;BME280;28892;55.640;37.532;2023-03-26T04:04:56;97244.19;;;8.80;71.74
43298;BME280;28892;55.640;37.532;2023-03-26T04:07:29;97248.06;;;8.78;72.19
43298;BME280;28892;55.640;37.532;2023-03-26T04:10:06;97239.75;;;8.74;71.60
43298;BME280;28892;55.640;37.532;2023-03-26T04:13:01;97245.22;;;8.79;71.64
43298;BME280;28892;55.640;37.532;2023-03-26T04:15:45;97235.28;;;8.75;71.57
43298;BME280;28892;55.640;37.532;2023-03-26T04:18:11;97225.13;;;8.72;72.20
43298;BME280;28892;55.640;37.532;2023-03-26T04:20:44;97231.81;;;8.74;72.24
43298;BME280;28892;55.640;37.532;2023-03-26T04:23:23;97226.09;;;8.77;71.92
43298;BME280;28892;55.640;37.532;2023-03-26T04:26:00;97221.84;;;8.76;72.15
43298;BME280;28892;55.640;37.532;2023-03-26T04:28:51;97222.38;;;8.85;71.52
43298;BME280;28892;55.640;37.532;2023-03-26T04:31:24;97217.28;;;8.84;72.21
43298;BME280;28892;55.640;37.532;2023-03-26T04:33:55;97220.75;;;8.84;71.85
43298;BME280;28892;55.640;37.532;2023-03-26T04:36:28;97212.75;;;8.91;71.73
43298;BME280;28892;55.640;37.532;2023-03-26T04:38:55;97213.16;;;8.88;71.94
43298;BME280;28892;55.640;37.532;2023-03-26T04:41:42;97209.88;;;8.92;72.04
43298;BME280;28892;55.640;37.532;2023-03-26T04:44:22;97195.69;;;8.87;71.76
43298;BME280;28892;55.640;37.532;2023-03-26T04:46:59;97185.72;;;8.89;71.80
43298;BME280;28892;55.640;37.532;2023-03-26T04:49:31;97195.97;;;8.97;71.60
43298;BME280;28892;55.640;37.532;2023-03-26T04:51:57;97194.75;;;9.00;71.59
43298;BME280;28892;55.640;37.532;2023-03-26T04:54:44;97185.50;;;8.90;71.57
43298;BME280;28892;55.640;37.532;2023-03-26T04:57:34;97182.84;;;9.09;72.14
43298;BME280;28892;55.640;37.532;2023-03-26T05:00:07;97187.84;;;8.99;71.62
43298;BME280;28892;55.640;37.532;2023-03-26T05:02:42;97187.63;;;9.00;71.75
43298;BME280;28892;55.640;37.532;2023-03-26T05:05:10;97176.91;;;8.95;71.93
43298;BME280;28892;55.640;37.532;2023-03-26T05:07:47;97184.97;;;9.00;72.02
43298;BME280;28892;55.640;37.532;2023-03-26T05:10:21;97168.59;;;8.91;72.07
43298;BME280;28892;55.640;37.532;2023-03-26T05:12:58;97180.44;;;8.89;71.86
43298;BME280;28892;55.640;37.532;2023-03-26T05:15:32;97170.44;;;8.91;71.69
43298;BME280;28892;55.640;37.532;2023-03-26T05:18:16;97175.72;;;8.91;72.22
43298;BME280;28892;55.640;37.532;2023-03-26T05:20:47;97183.09;;;8.89;72.07
43298;BME280;28892;55.640;37.532;2023-03-26T05:23:28;97179.41;;;8.90;72.80
43298;BME280;28892;55.640;37.532;2023-03-26T05:26:19;97182.34;;;8.82;72.98
43298;BME280;28892;55.640;37.532;2023-03-26T05:29:05;97186.06;;;8.92;73.00
43298;BME280;28892;55.640;37.532;2023-03-26T05:31:52;97178.00;;;8.87;72.06
43298;BME280;28892;55.640;37.532;2023-03-26T05:34:19;97190.28;;;8.82;72.82
43298;BME280;28892;55.640;37.532;2023-03-26T05:36:51;97175.44;;;8.80;72.40
43298;BME280;28892;55.640;37.532;2023-03-26T05:39:46;97174.81;;;8.97;71.95
43298;BME280;28892;55.640;37.532;2023-03-26T05:42:50;97176.22;;;9.00;71.79
43298;BME280;28892;55.640;37.532;2023-03-26T05:45:48;97167.94;;;8.96;71.72
43298;BME280;28892;55.640;37.532;2023-03-26T05:48:41;97168.50;;;8.98;71.71
43298;BME280;28892;55.640;37.532;2023-03-26T05:51:20;97167.72;;;8.98;72.03
43298;BME280;28892;55.640;37.532;2023-03-26T05:54:29;97163.84;;;9.00;72.18
43298;BME280;28892;55.640;37.532;2023-03-26T05:57:30;97164.56;;;8.89;72.16
43298;BME280;28892;55.640;37.532;2023-03-26T06:00:17;97157.31;;;8.84;72.78
43298;BME280;28892;55.640;37.532;2023-03-26T06:02:49;97142.16;;;8.91;72.77
43298;BME280;28892;55.640;37.532;2023-03-26T06:05:56;97137.78;;;8.85;73.45
43298;BME280;28892;55.640;37.532;2023-03-26T06:08:46;97134.75;;;8.82;73.54
43298;BME280;28892;55.640;37.532;2023-03-26T06:11:18;97126.88;;;8.93;73.29
43298;BME280;28892;55.640;37.532;2023-03-26T06:14:10;97132.13;;;9.12;73.57
43298;BME280;28892;55.640;37.532;2023-03-26T06:16:48;97125.50;;;9.21;72.17
43298;BME280;28892;55.640;37.532;2023-03-26T06:19:20;97116.41;;;9.17;72.27
43298;BME280;28892;55.640;37.532;2023-03-26T06:21:46;97125.28;;;9.23;71.99
43298;BME280;28892;55.640;37.532;2023-03-26T06:24:23;97123.56;;;9.29;71.51
43298;BME280;28892;55.640;37.532;2023-03-26T06:27:21;97122.19;;;9.26;72.03
43298;BME280;28892;55.640;37.532;2023-03-26T06:30:10;97108.97;;;9.26;71.70
43298;BME280;28892;55.640;37.532;2023-03-26T06:32:45;97101.91;;;9.20;72.27
43298;BME280;28892;55.640;37.532;2023-03-26T06:35:16;97113.66;;;9.24;72.80
43298;BME280;28892;55.640;37.532;2023-03-26T06:37:48;97099.25;;;9.20;72.89
43298;BME280;28892;55.640;37.532;2023-03-26T06:40:14;97090.53;;;9.19;73.38
43298;BME280;28892;55.640;37.532;2023-03-26T06:42:53;97082.19;;;9.34;72.31
43298;BME280;28892;55.640;37.532;2023-03-26T06:45:39;97085.97;;;9.39;72.06
43298;BME280;28892;55.640;37.532;2023-03-26T06:48:23;97088.53;;;9.45;71.58
43298;BME280;28892;55.640;37.532;2023-03-26T06:51:10;97083.22;;;9.33;72.71
43298;BME280;28892;55.640;37.532;2023-03-26T06:54:14;97089.78;;;9.43;73.01
43298;BME280;28892;55.640;37.532;2023-03-26T06:56:50;97086.56;;;9.41;72.99
43298;BME280;28892;55.640;37.532;2023-03-26T06:59:19;97076.47;;;9.49;71.79
43298;BME280;28892;55.640;37.532;2023-03-26T07:02:04;97086.22;;;9.49;71.94
43298;BME280;28892;55.640;37.532;2023-03-26T07:04:48;97080.22;;;9.42;71.92
43298;BME280;28892;55.640;37.532;2023-03-26T07:07:33;97073.91;;;9.43;71.74
43298;BME280;28892;55.640;37.532;2023-03-26T07:10:19;97066.19;;;9.53;71.99
43298;BME280;28892;55.640;37.532;2023-03-26T07:13:04;97062.16;;;9.39;72.50
43298;BME280;28892;55.640;37.532;2023-03-26T07:15:55;97053.44;;;9.38;72.42
43298;BME280;28892;55.640;37.532;2023-03-26T07:18:32;97037.31;;;9.28;73.02
43298;BME280;28892;55.640;37.532;2023-03-26T07:21:02;97042.72;;;9.33;73.22
43298;BME280;28892;55.640;37.532;2023-03-26T07:23:31;97036.97;;;9.36;72.12
43298;BME280;28892;55.640;37.532;2023-03-26T07:26:37;97038.72;;;9.54;72.70
43298;BME280;28892;55.640;37.532;2023-03-26T07:29:36;97040.22;;;9.62;71.89
43298;BME280;28892;55.640;37.532;2023-03-26T07:36:02;97045.28;;;9.52;72.30
43298;BME280;28892;55.640;37.532;2023-03-26T07:41:50;97036.78;;;9.49;71.45
43298;BME280;28892;55.640;37.532;2023-03-26T07:47:50;97016.22;;;9.21;72.06
43298;BME280;28892;55.640;37.532;2023-03-26T07:50:36;97008.75;;;9.18;72.11
43298;BME280;28892;55.640;37.532;2023-03-26T07:53:39;97009.47;;;9.25;72.42
43298;BME280;28892;55.640;37.532;2023-03-26T07:59:37;97028.41;;;9.10;72.55
43298;BME280;28892;55.640;37.532;2023-03-26T08:11:46;97002.53;;;9.12;72.04
43298;BME280;28892;55.640;37.532;2023-03-26T08:17:12;97020.78;;;8.90;73.12
43298;BME280;28892;55.640;37.532;2023-03-26T08:20:08;97019.19;;;9.01;73.54
43298;BME280;28892;55.640;37.532;2023-03-26T08:22:42;97007.31;;;8.91;72.91
43298;BME280;28892;55.640;37.532;2023-03-26T08:25:29;97013.56;;;9.09;71.81
43298;BME280;28892;55.640;37.532;2023-03-26T08:28:08;97009.75;;;8.93;72.15
43298;BME280;28892;55.640;37.532;2023-03-26T08:30:38;96992.81;;;8.82;72.03
43298;BME280;28892;55.640;37.532;2023-03-26T08:33:12;96991.13;;;9.00;72.17
43298;BME280;28892;55.640;37.532;2023-03-26T08:35:38;96968.94;;;8.89;72.02
43298;BME280;28892;55.640;37.532;2023-03-26T08:38:08;96992.72;;;8.89;72.06
43298;BME280;28892;55.640;37.532;2023-03-26T08:41:00;96989.53;;;8.99;72.97
43298;BME280;28892;55.640;37.532;2023-03-26T08:44:00;96990.66;;;8.91;73.11
43298;BME280;28892;55.640;37.532;2023-03-26T09:01:57;96972.97;;;9.03;72.40
43298;BME280;28892;55.640;37.532;2023-03-26T09:11:15;96955.88;;;8.45;73.93
43298;BME280;28892;55.640;37.532;2023-03-26T09:17:58;96961.34;;;8.92;72.98
43298;BME280;28892;55.640;37.532;2023-03-26T09:59:30;96923.47;;;8.37;75.73
43298;BME280;28892;55.640;37.532;2023-03-26T10:06:59;96922.88;;;8.35;77.29
43298;BME280;28892;55.640;37.532;2023-03-26T10:10:15;96910.13;;;8.32;76.93
43298;BME280;28892;55.640;37.532;2023-03-26T10:43:41;96895.44;;;8.06;78.74
43298;BME280;28892;55.640;37.532;2023-03-26T10:52:28;96886.88;;;8.10;78.94
43298;BME280;28892;55.640;37.532;2023-03-26T10:58:04;96885.78;;;8.00;79.71
43298;BME280;28892;55.640;37.532;2023-03-26T11:00:41;96885.19;;;8.28;78.69
43298;BME280;28892;55.640;37.532;2023-03-26T11:03:24;96885.75;;;8.18;78.97
43298;BME280;28892;55.640;37.532;2023-03-26T11:08:45;96880.91;;;8.15;80.13
43298;BME280;28892;55.640;37.532;2023-03-26T11:11:29;96887.16;;;8.33;78.83
43298;BME280;28892;55.640;37.532;2023-03-26T11:17:23;96887.31;;;8.50;78.85
43298;BME280;28892;55.640;37.532;2023-03-26T11:31:09;96868.56;;;7.97;80.47
43298;BME280;28892;55.640;37.532;2023-03-26T11:33:51;96875.44;;;7.98;79.88
43298;BME280;28892;55.640;37.532;2023-03-26T11:36:32;96858.53;;;7.87;80.60
43298;BME280;28892;55.640;37.532;2023-03-26T11:39:14;96864.34;;;8.08;79.25
43298;BME280;28892;55.640;37.532;2023-03-26T11:41:51;96860.47;;;8.22;78.58
43298;BME280;28892;55.640;37.532;2023-03-26T11:44:56;96880.06;;;8.45;78.73
43298;BME280;28892;55.640;37.532;2023-03-26T11:47:45;96875.25;;;8.42;78.33
43298;BME280;28892;55.640;37.532;2023-03-26T11:50:58;96870.06;;;8.35;78.33
43298;BME280;28892;55.640;37.532;2023-03-26T11:53:39;96875.22;;;8.00;79.48
43298;BME280;28892;55.640;37.532;2023-03-26T12:02:59;96861.69;;;7.77;80.74
43298;BME280;28892;55.640;37.532;2023-03-26T12:05:37;96883.41;;;8.10;80.15
43298;BME280;28892;55.640;37.532;2023-03-26T12:08:27;96856.63;;;8.06;79.85
43298;BME280;28892;55.640;37.532;2023-03-26T12:11:13;96863.03;;;7.99;79.89
43298;BME280;28892;55.640;37.532;2023-03-26T12:13:44;96858.25;;;7.77;80.54
43298;BME280;28892;55.640;37.532;2023-03-26T12:16:18;96857.00;;;8.10;79.84
43298;BME280;28892;55.640;37.532;2023-03-26T12:18:46;96852.81;;;8.21;79.06
43298;BME280;28892;55.640;37.532;2023-03-26T12:21:24;96860.84;;;7.95;79.40
43298;BME280;28892;55.640;37.532;2023-03-26T12:24:03;96851.78;;;7.91;79.86
43298;BME280;28892;55.640;37.532;2023-03-26T12:26:55;96859.44;;;7.81;80.72
43298;BME280;28892;55.640;37.532;2023-03-26T12:29:21;96846.31;;;7.55;81.30
43298;BME280;28892;55.640;37.532;2023-03-26T12:32:03;96840.97;;;7.62;81.54
43298;BME280;28892;55.640;37.532;2023-03-26T12:34:43;96850.53;;;8.24;80.37
43298;BME280;28892;55.640;37.532;2023-03-26T12:37:37;96837.63;;;8.16;79.69
43298;BME280;28892;55.640;37.532;2023-03-26T12:40:34;96840.38;;;8.21;78.84
43298;BME280;28892;55.640;37.532;2023-03-26T12:43:42;96835.53;;;7.76;80.65
43298;BME280;28892;55.640;37.532;2023-03-26T12:49:09;96823.84;;;8.14;79.59
43298;BME280;28892;55.640;37.532;2023-03-26T12:55:31;96841.69;;;8.31;79.20
43298;BME280;28892;55.640;37.532;2023-03-26T12:58:27;96844.03;;;8.08;79.74
43298;BME280;28892;55.640;37.532;2023-03-26T13:04:26;96837.53;;;8.23;79.00
43298;BME280;28892;55.640;37.532;2023-03-26T13:10:47;96850.00;;;8.16;78.99
43298;BME280;28892;55.640;37.532;2023-03-26T13:14:10;96844.06;;;8.20;78.56
43298;BME280;28892;55.640;37.532;2023-03-26T13:17:16;96842.16;;;8.39;78.78
43298;BME280;28892;55.640;37.532;2023-03-26T13:28:31;96839.41;;;7.73;79.41
43298;BME280;28892;55.640;37.532;2023-03-26T13:31:38;96840.78;;;7.76;80.04
43298;BME280;28892;55.640;37.532;2023-03-26T13:34:48;96830.84;;;8.20;79.10
43298;BME280;28892;55.640;37.532;2023-03-26T13:37:31;96840.72;;;8.13;78.71
43298;BME280;28892;55.640;37.532;2023-03-26T13:46:17;96824.09;;;7.63;80.81
43298;BME280;28892;55.640;37.532;2023-03-26T13:49:31;96815.19;;;7.46;81.37
43298;BME280;28892;55.640;37.532;2023-03-26T13:52:45;96792.84;;;7.30;81.93
43298;BME280;28892;55.640;37.532;2023-03-26T14:01:46;96823.00;;;7.52;81.46
43298;BME280;28892;55.640;37.532;2023-03-26T14:04:35;96827.69;;;7.69;80.55
43298;BME280;28892;55.640;37.532;2023-03-26T14:07:18;96820.59;;;7.51;80.97
43298;BME280;28892;55.640;37.532;2023-03-26T14:10:16;96813.94;;;7.48;80.93
43298;BME280;28892;55.640;37.532;2023-03-26T14:18:13;96838.41;;;7.55;80.09
43298;BME280;28892;55.640;37.532;2023-03-26T14:20:47;96837.09;;;7.46;80.96
43298;BME280;28892;55.640;37.532;2023-03-26T14:29:27;96821.56;;;7.57;80.18
43298;BME280;28892;55.640;37.532;2023-03-26T14:32:18;96822.78;;;7.73;80.83
43298;BME280;28892;55.640;37.532;2023-03-26T14:37:51;96825.72;;;7.46;80.50
43298;BME280;28892;55.640;37.532;2023-03-26T14:54:33;96812.13;;;7.30;81.36
43298;BME280;28892;55.640;37.532;2023-03-26T15:00:26;96823.75;;;7.90;79.06
43298;BME280;28892;55.640;37.532;2023-03-26T15:06:05;96817.50;;;7.73;79.90
43298;BME280;28892;55.640;37.532;2023-03-26T15:39:08;96806.59;;;7.50;80.18
43298;BME280;28892;55.640;37.532;2023-03-26T15:44:53;96810.34;;;6.87;83.07
43298;BME280;28892;55.640;37.532;2023-03-26T15:50:51;96809.31;;;7.44;81.13
43298;BME280;28892;55.640;37.532;2023-03-26T15:53:47;96815.50;;;7.37;81.13
43298;BME280;28892;55.640;37.532;2023-03-26T15:59:33;96825.94;;;7.07;81.82
43298;BME280;28892;55.640;37.532;2023-03-26T16:05:21;96820.09;;;7.42;80.16
43298;BME280;28892;55.640;37.532;2023-03-26T16:08:22;96807.25;;;7.46;80.13
43298;BME280;28892;55.640;37.532;2023-03-26T16:10:55;96820.44;;;7.46;80.51
43298;BME280;28892;55.640;37.532;2023-03-26T16:20:29;96825.63;;;7.71;80.47
43298;BME280;28892;55.640;37.532;2023-03-26T16:23:50;96816.56;;;7.48;80.14
43298;BME280;28892;55.640;37.532;2023-03-26T16:32:52;96819.09;;;7.24;80.55
43298;BME280;28892;55.640;37.532;2023-03-26T16:41:22;96813.72;;;7.50;79.97
43298;BME280;28892;55.640;37.532;2023-03-26T16:48:14;96832.47;;;7.41;80.26
43298;BME280;28892;55.640;37.532;2023-03-26T17:01:20;96838.94;;;7.27;81.11
43298;BME280;28892;55.640;37.532;2023-03-26T17:04:28;96839.41;;;6.98;81.78
43298;BME280;28892;55.640;37.532;2023-03-26T17:07:13;96831.09;;;6.76;82.39
43298;BME280;28892;55.640;37.532;2023-03-26T17:32:08;96836.41;;;7.13;81.09
43298;BME280;28892;55.640;37.532;2023-03-26T17:34:59;96850.78;;;7.18;81.63
43298;BME280;28892;55.640;37.532;2023-03-26T17:37:54;96817.75;;;7.34;80.58
43298;BME280;28892;55.640;37.532;2023-03-26T17:40:50;96829.09;;;7.34;80.09
43298;BME280;28892;55.640;37.532;2023-03-26T17:48:26;96826.00;;;7.00;81.79
43298;BME280;28892;55.640;37.532;2023-03-26T17:51:28;96838.94;;;7.27;81.58
43298;BME280;28892;55.640;37.532;2023-03-26T17:53:47;96822.31;;;6.82;82.05
43298;BME280;28892;55.640;37.532;2023-03-26T17:56:21;96832.16;;;6.94;82.42
43298;BME280;28892;55.640;37.532;2023-03-26T17:58:59;96827.66;;;6.76;83.15
43298;BME280;28892;55.640;37.532;2023-03-26T18:01:36;96821.47;;;6.89;83.06
43298;BME280;28892;55.640;37.532;2023-03-26T18:04:05;96833.53;;;6.96;82.56
43298;BME280;28892;55.640;37.532;2023-03-26T18:17:48;96826.25;;;7.17;81.68
43298;BME280;28892;55.640;37.532;2023-03-26T18:20:23;96829.84;;;7.60;81.08
43298;BME280;28892;55.640;37.532;2023-03-26T18:22:57;96819.56;;;7.71;80.44
43298;BME280;28892;55.640;37.532;2023-03-26T18:25:26;96822.69;;;7.79;79.29
43298;BME280;28892;55.640;37.532;2023-03-26T18:27:54;96808.56;;;7.74;78.91
43298;BME280;28892;55.640;37.532;2023-03-26T18:30:24;96809.72;;;7.78;78.32
43298;BME280;28892;55.640;37.532;2023-03-26T18:33:17;96823.63;;;7.85;78.48
43298;BME280;28892;55.640;37.532;2023-03-26T18:35:55;96825.38;;;7.91;78.87
43298;BME280;28892;55.640;37.532;2023-03-26T18:38:27;96822.19;;;7.71;78.20
43298;BME280;28892;55.640;37.532;2023-03-26T18:40:59;96805.91;;;7.74;78.62
43298;BME280;28892;55.640;37.532;2023-03-26T18:43:41;96823.09;;;7.46;79.02
43298;BME280;28892;55.640;37.532;2023-03-26T18:46:12;96810.88;;;7.14;80.67
43298;BME280;28892;55.640;37.532;2023-03-26T18:49:00;96810.22;;;7.37;80.13
43298;BME280;28892;55.640;37.532;2023-03-26T18:51:29;96803.72;;;7.21;80.18
43298;BME280;28892;55.640;37.532;2023-03-26T18:53:59;96802.16;;;7.51;80.51
43298;BME280;28892;55.640;37.532;2023-03-26T18:56:32;96817.03;;;7.76;79.52
43298;BME280;28892;55.640;37.532;2023-03-26T18:59:03;96804.41;;;7.96;78.56
43298;BME280;28892;55.640;37.532;2023-03-26T19:02:12;96808.94;;;8.20;78.18
43298;BME280;28892;55.640;37.532;2023-03-26T19:04:47;96820.78;;;8.29;77.03
43298;BME280;28892;55.640;37.532;2023-03-26T19:07:24;96817.56;;;8.27;77.03
43298;BME280;28892;55.640;37.532;2023-03-26T19:09:51;96816.88;;;8.20;76.69
43298;BME280;28892;55.640;37.532;2023-03-26T19:12:31;96817.13;;;8.30;76.77
43298;BME280;28892;55.640;37.532;2023-03-26T19:15:12;96803.13;;;8.42;76.13
43298;BME280;28892;55.640;37.532;2023-03-26T19:17:48;96811.72;;;8.37;76.10
43298;BME280;28892;55.640;37.532;2023-03-26T19:20:24;96814.22;;;8.32;76.05
43298;BME280;28892;55.640;37.532;2023-03-26T19:23:07;96810.56;;;8.33;75.99
43298;BME280;28892;55.640;37.532;2023-03-26T19:25:41;96803.50;;;8.03;75.84
43298;BME280;28892;55.640;37.532;2023-03-26T19:28:17;96801.72;;;8.27;76.44
43298;BME280;28892;55.640;37.532;2023-03-26T19:30:51;96802.38;;;8.22;76.07
43298;BME280;28892;55.640;37.532;2023-03-26T19:33:19;96803.44;;;8.33;76.01
43298;BME280;28892;55.640;37.532;2023-03-26T19:36:13;96806.84;;;8.52;75.77
43298;BME280;28892;55.640;37.532;2023-03-26T19:38:54;96799.38;;;8.07;75.29
43298;BME280;28892;55.640;37.532;2023-03-26T19:41:32;96805.63;;;8.24;75.42
43298;BME280;28892;55.640;37.532;2023-03-26T19:44:25;96804.69;;;8.19;75.35
43298;BME280;28892;55.640;37.532;2023-03-26T19:47:04;96818.63;;;8.50;75.67
43298;BME280;28892;55.640;37.532;2023-03-26T19:49:58;96798.03;;;8.28;75.04
43298;BME280;28892;55.640;37.532;2023-03-26T19:57:10;96816.63;;;8.21;73.75
43298;BME280;28892;55.640;37.532;2023-03-26T20:00:15;96816.44;;;8.35;73.99
43298;BME280;28892;55.640;37.532;2023-03-26T20:03:39;96816.19;;;8.36;73.91
43298;BME280;28892;55.640;37.532;2023-03-26T20:06:22;96818.16;;;8.29;73.58
43298;BME280;28892;55.640;37.532;2023-03-26T20:08:48;96818.84;;;8.24;73.00
43298;BME280;28892;55.640;37.532;2023-03-26T20:11:22;96817.66;;;8.20;72.77
43298;BME280;28892;55.640;37.532;2023-03-26T20:13:49;96829.81;;;8.21;72.55